Time;durP1;ratioP1;P1;durP2;ratioP2;P2;SDS_P1;SDS_P2;PMS_P1;PMS_P2;Temp;Humidity;BMP_temperature;BMP_pressure;BME280_temperature;BME280_humidity;BME280_pressure;Samples;Min_cycle;Max_cycle;Signal;HPM_P1;HPM_P2
2024/01/09 00:02:18;;;;;;;3.75;1.50;;;-1.30;22.50;;;;;;5108269;28;20938;-77
2024/01/09 00:04:43;;;;;;;8.03;1.80;;;-1.30;21.60;;;;;;5110130;28;20415;-77
2024/01/09 00:07:09;;;;;;;5.47;2.03;;;-1.30;22.30;;;;;;5096228;28;20930;-77
2024/01/09 00:09:35;;;;;;;5.70;1.92;;;-1.30;23.20;;;;;;5108163;28;20404;-77
2024/01/09 00:12:01;;;;;;;5.55;1.98;;;-1.30;23.50;;;;;;5107594;28;20766;-77
2024/01/09 00:14:26;;;;;;;5.32;2.00;;;-1.30;23.00;;;;;;5109043;28;20412;-77
2024/01/09 00:16:52;;;;;;;4.25;1.90;;;-1.30;20.30;;;;;;5106569;28;20404;-77
2024/01/09 00:19:18;;;;;;;3.97;1.73;;;-1.30;20.60;;;;;;5109530;28;20824;-77
2024/01/09 00:21:46;;;;;;;4.47;1.77;;;-1.40;17.50;;;;;;5106042;28;20488;-76
2024/01/09 00:24:12;;;;;;;4.95;1.90;;;-1.40;18.90;;;;;;5108991;28;20400;-76
2024/01/09 00:26:41;;;;;;;3.83;1.60;;;-1.40;19.40;;;;;;5106471;28;20497;-77
2024/01/09 00:29:07;;;;;;;5.72;2.05;;;-1.40;17.80;;;;;;5109251;28;20396;-77
2024/01/09 00:31:32;;;;;;;5.10;1.80;;;-1.40;18.20;;;;;;5105461;28;20845;-77
2024/01/09 00:33:58;;;;;;;5.53;2.10;;;-1.40;17.10;;;;;;5108164;28;20401;-77
2024/01/09 00:36:24;;;;;;;4.97;1.87;;;-1.40;18.30;;;;;;5106201;28;20487;-77
2024/01/09 00:38:50;;;;;;;5.25;1.90;;;-1.40;17.70;;;;;;5107764;28;20461;-77
2024/01/09 00:41:15;;;;;;;4.40;1.93;;;-1.50;17.90;;;;;;5105710;28;20870;-77
2024/01/09 00:43:41;;;;;;;4.22;1.83;;;-1.40;18.80;;;;;;5108283;28;20392;-77
2024/01/09 00:46:07;;;;;;;4.60;1.83;;;-1.50;19.20;;;;;;5105277;28;20412;-77
2024/01/09 00:48:33;;;;;;;5.10;1.70;;;-1.50;18.90;;;;;;5108558;28;20905;-77
2024/01/09 00:50:58;;;;;;;5.10;2.17;;;-1.50;17.30;;;;;;5105854;27;20928;-77
2024/01/09 00:53:24;;;;;;;4.00;1.83;;;-1.50;16.40;;;;;;5107966;28;20475;-77
2024/01/09 00:55:49;;;;;;;4.28;1.73;;;-1.50;15.40;;;;;;5103821;28;20444;-77
2024/01/09 00:58:15;;;;;;;5.37;2.23;;;-1.50;15.60;;;;;;5097035;28;20406;-77
2024/01/09 01:00:40;;;;;;;4.57;2.23;;;-1.60;12.60;;;;;;5093259;28;20401;-77
2024/01/09 01:03:06;;;;;;;5.47;2.20;;;-1.60;11.60;;;;;;5098460;28;20418;-77
2024/01/09 01:05:33;;;;;;;5.07;1.80;;;-1.60;10.30;;;;;;5105305;28;20396;-77
2024/01/09 01:07:59;;;;;;;5.15;1.73;;;-1.60;10.40;;;;;;5108647;28;20480;-77
2024/01/09 01:10:24;;;;;;;4.37;2.00;;;-1.60;13.30;;;;;;5106039;28;21334;-77
2024/01/09 01:12:50;;;;;;;5.10;1.90;;;-1.60;14.60;;;;;;5106753;28;20427;-77
2024/01/09 01:15:16;;;;;;;4.72;1.95;;;-1.60;14.00;;;;;;5105530;28;20433;-77
2024/01/09 01:17:42;;;;;;;4.80;1.77;;;-1.60;15.30;;;;;;5107700;28;20403;-77
2024/01/09 01:20:08;;;;;;;5.40;2.15;;;-1.60;13.90;;;;;;5107225;28;20404;-77
2024/01/09 01:22:33;;;;;;;3.50;1.75;;;-1.60;13.40;;;;;;5107675;28;20546;-77
2024/01/09 01:24:59;;;;;;;5.35;2.42;;;-1.70;14.30;;;;;;5106301;28;20424;-78
2024/01/09 01:27:24;;;;;;;4.27;1.73;;;-1.70;15.00;;;;;;5105827;28;20439;-78
2024/01/09 01:29:50;;;;;;;5.87;2.13;;;-1.70;16.10;;;;;;5101620;28;20973;-78
2024/01/09 01:32:16;;;;;;;4.40;1.98;;;-1.70;14.80;;;;;;5097172;28;20403;-78
2024/01/09 01:34:41;;;;;;;4.40;1.75;;;-1.70;14.80;;;;;;5103887;28;20816;-78
2024/01/09 01:37:07;;;;;;;6.60;2.20;;;-1.80;15.00;;;;;;5105973;28;20469;-78
2024/01/09 01:39:33;;;;;;;5.00;1.80;;;-1.80;15.90;;;;;;5103990;28;20441;-78
2024/01/09 01:41:59;;;;;;;4.50;2.10;;;-1.80;16.60;;;;;;5107455;28;20402;-78
2024/01/09 01:44:24;;;;;;;3.55;1.75;;;-1.80;17.10;;;;;;5101974;28;20463;-78
2024/01/09 01:46:50;;;;;;;4.90;2.13;;;-1.80;16.70;;;;;;5096397;28;20515;-78
2024/01/09 01:49:19;;;;;;;4.10;1.90;;;-1.80;16.40;;;;;;5102402;28;20394;-78
2024/01/09 01:51:46;;;;;;;6.28;2.17;;;-1.90;17.40;;;;;;5106752;28;20440;-78
2024/01/09 01:54:13;;;;;;;6.18;2.05;;;-1.90;18.30;;;;;;5100810;28;20451;-78
2024/01/09 01:56:40;;;;;;;4.72;2.22;;;-1.90;18.20;;;;;;5104798;28;21261;-78
2024/01/09 01:59:07;;;;;;;4.40;2.00;;;-1.90;18.30;;;;;;5093911;28;20487;-78
2024/01/09 02:01:33;;;;;;;5.72;2.20;;;-1.90;18.70;;;;;;5090368;28;20419;-78
2024/01/09 02:03:59;;;;;;;3.95;1.83;;;-1.90;19.50;;;;;;5107222;28;20393;-78
2024/01/09 02:06:25;;;;;;;5.47;2.30;;;-2.00;19.40;;;;;;5106660;28;20420;-78
2024/01/09 02:08:54;;;;;;;5.53;2.10;;;-2.00;18.50;;;;;;5106691;28;20393;-78
2024/01/09 02:11:21;;;;;;;4.30;1.92;;;-2.00;18.10;;;;;;5108632;28;20476;-78
2024/01/09 02:13:46;;;;;;;4.47;1.60;;;-2.00;18.50;;;;;;5107991;28;20384;-78
2024/01/09 02:16:12;;;;;;;5.30;2.00;;;-2.00;18.20;;;;;;5108249;28;20758;-78
2024/01/09 02:18:38;;;;;;;4.00;1.70;;;-2.00;19.10;;;;;;5108314;28;20392;-78
2024/01/09 02:21:04;;;;;;;6.20;2.03;;;-2.00;19.90;;;;;;5107708;28;20396;-77
2024/01/09 02:23:30;;;;;;;4.32;1.73;;;-2.00;20.60;;;;;;5099640;28;20473;-78
2024/01/09 02:25:55;;;;;;;4.32;2.03;;;-2.00;19.90;;;;;;5099971;28;20416;-78
2024/01/09 02:28:29;;;;;;;4.72;2.20;;;-2.10;20.50;;;;;;5093365;28;20459;-77
2024/01/09 02:30:56;;;;;;;6.30;1.98;;;-2.10;19.90;;;;;;5106807;27;20392;-77
2024/01/09 02:33:22;;;;;;;4.95;2.00;;;-2.10;18.80;;;;;;5100791;28;20433;-78
2024/01/09 02:35:47;;;;;;;6.13;2.00;;;-2.10;19.10;;;;;;5070077;28;20437;-77
2024/01/09 02:38:13;;;;;;;4.20;1.90;;;-2.10;19.70;;;;;;5087949;28;20492;-78
2024/01/09 02:40:38;;;;;;;6.00;2.00;;;-2.10;18.20;;;;;;5084756;28;20509;-78
2024/01/09 02:43:04;;;;;;;5.75;1.98;;;-2.10;18.80;;;;;;5085880;28;20452;-78
2024/01/09 02:45:30;;;;;;;6.10;2.00;;;-2.10;19.00;;;;;;5091783;28;20398;-78
2024/01/09 02:47:56;;;;;;;5.63;2.23;;;-2.20;18.90;;;;;;5088592;28;20426;-78
2024/01/09 02:50:21;;;;;;;4.93;2.10;;;-2.20;18.60;;;;;;5096764;28;20969;-78
2024/01/09 02:52:47;;;;;;;5.35;2.00;;;-2.20;18.30;;;;;;5088433;28;20430;-77
2024/01/09 02:55:13;;;;;;;4.45;2.03;;;-2.20;16.80;;;;;;5086560;28;20810;-77
2024/01/09 02:57:40;;;;;;;5.65;2.13;;;-2.20;17.90;;;;;;5080154;28;20743;-78
2024/01/09 03:00:10;;;;;;;4.35;2.17;;;-2.20;18.90;;;;;;5086969;28;20418;-77
2024/01/09 03:02:36;;;;;;;4.43;2.20;;;-2.20;19.40;;;;;;5088864;28;20432;-78
2024/01/09 03:05:04;;;;;;;5.20;2.25;;;-2.20;20.50;;;;;;5087893;28;20406;-78
2024/01/09 03:07:30;;;;;;;4.35;2.08;;;-2.20;21.20;;;;;;5088222;28;20434;-78
2024/01/09 03:09:56;;;;;;;4.63;2.53;;;-2.20;21.40;;;;;;5088622;28;20401;-78
2024/01/09 03:12:22;;;;;;;5.22;2.10;;;-2.30;21.90;;;;;;5088446;28;20427;-78
2024/01/09 03:14:47;;;;;;;4.80;2.10;;;-2.30;22.90;;;;;;5074552;28;20408;-78
2024/01/09 03:17:13;;;;;;;4.87;2.40;;;-2.30;22.80;;;;;;5086995;28;20426;-78
2024/01/09 03:19:40;;;;;;;5.10;2.45;;;-2.30;23.00;;;;;;5093144;28;20433;-78
2024/01/09 03:22:06;;;;;;;5.32;2.40;;;-2.30;24.20;;;;;;5093206;28;20455;-78
2024/01/09 03:24:31;;;;;;;5.35;2.20;;;-2.30;24.80;;;;;;5099889;28;20495;-78
2024/01/09 03:26:57;;;;;;;5.22;2.40;;;-2.30;25.50;;;;;;5093643;28;20441;-78
2024/01/09 03:29:23;;;;;;;5.13;2.27;;;-2.40;25.40;;;;;;5098068;28;20400;-78
2024/01/09 03:31:49;;;;;;;5.13;2.63;;;-2.40;25.90;;;;;;5068940;28;20438;-78
2024/01/09 03:34:15;;;;;;;4.70;2.50;;;-2.40;26.50;;;;;;5097934;28;20428;-78
2024/01/09 03:36:45;;;;;;;5.07;2.50;;;-2.40;27.50;;;;;;5074938;28;20434;-78
2024/01/09 03:39:14;;;;;;;6.95;2.58;;;-2.40;29.10;;;;;;5096873;28;20857;-78
2024/01/09 03:41:41;;;;;;;5.40;2.50;;;-2.40;29.60;;;;;;5084438;28;20973;-78
2024/01/09 03:44:07;;;;;;;7.53;2.53;;;-2.40;29.90;;;;;;5085638;28;20438;-78
2024/01/09 03:46:32;;;;;;;4.68;2.30;;;-2.40;30.00;;;;;;5086818;28;20468;-78
2024/01/09 03:48:58;;;;;;;5.32;2.40;;;-2.40;30.50;;;;;;5095595;28;20815;-78
2024/01/09 03:51:24;;;;;;;4.47;2.53;;;-2.50;30.00;;;;;;5088364;28;20394;-78
2024/01/09 03:53:49;;;;;;;5.40;2.90;;;-2.50;30.40;;;;;;5088529;28;20539;-78
2024/01/09 03:56:15;;;;;;;5.80;2.50;;;-2.50;30.90;;;;;;5088495;28;20498;-78
2024/01/09 03:58:40;;;;;;;5.30;2.65;;;-2.50;30.70;;;;;;5088311;28;20434;-77
2024/01/09 04:01:06;;;;;;;5.57;2.60;;;-2.50;30.90;;;;;;5088094;28;20492;-78
2024/01/09 04:03:32;;;;;;;5.37;2.70;;;-2.50;30.80;;;;;;5089032;28;20409;-78
2024/01/09 04:05:57;;;;;;;5.25;2.63;;;-2.60;30.70;;;;;;5088148;28;20425;-78
2024/01/09 04:08:23;;;;;;;5.07;2.80;;;-2.60;31.00;;;;;;5087634;28;20768;-77
2024/01/09 04:10:48;;;;;;;6.17;3.17;;;-2.60;30.80;;;;;;5088079;28;20398;-78
2024/01/09 04:13:14;;;;;;;6.13;2.90;;;-2.60;31.10;;;;;;5088323;28;20458;-78
2024/01/09 04:15:40;;;;;;;5.03;2.97;;;-2.60;31.10;;;;;;5088727;28;20872;-78
2024/01/09 04:18:06;;;;;;;6.83;2.97;;;-2.60;30.70;;;;;;5088781;28;20926;-78
2024/01/09 04:20:32;;;;;;;7.17;3.17;;;-2.60;30.10;;;;;;5087888;28;20426;-78
2024/01/09 04:22:57;;;;;;;6.57;3.03;;;-2.60;30.40;;;;;;5087870;28;20895;-79
2024/01/09 04:25:23;;;;;;;6.63;3.50;;;-2.60;31.60;;;;;;5087258;28;20539;-78
2024/01/09 04:27:49;;;;;;;6.77;3.60;;;-2.60;32.60;;;;;;5087659;28;20912;-78
2024/01/09 04:30:14;;;;;;;5.83;2.97;;;-2.60;32.60;;;;;;5087235;28;20398;-78
2024/01/09 04:32:40;;;;;;;6.97;2.97;;;-2.70;32.20;;;;;;5089864;28;20411;-78
2024/01/09 04:35:05;;;;;;;6.50;3.20;;;-2.60;31.50;;;;;;5090377;28;20759;-78
2024/01/09 04:37:31;;;;;;;6.90;3.23;;;-2.70;31.80;;;;;;5089728;28;20409;-78
2024/01/09 04:39:57;;;;;;;6.47;3.17;;;-2.70;31.60;;;;;;5090764;28;20398;-78
2024/01/09 04:42:22;;;;;;;6.53;2.80;;;-2.70;29.00;;;;;;5089672;28;20484;-79
2024/01/09 04:44:48;;;;;;;6.75;3.00;;;-2.70;27.60;;;;;;5090877;28;20394;-78
2024/01/09 04:47:15;;;;;;;6.27;3.20;;;-2.70;27.60;;;;;;5090440;28;20842;-78
2024/01/09 04:49:44;;;;;;;7.40;3.22;;;-2.70;27.60;;;;;;5090708;28;20410;-78
2024/01/09 04:52:10;;;;;;;7.13;3.10;;;-2.70;28.10;;;;;;5091283;28;20756;-78
2024/01/09 04:54:36;;;;;;;6.55;3.50;;;-2.70;28.40;;;;;;5089056;28;20413;-78
2024/01/09 04:57:02;;;;;;;5.95;3.40;;;-2.70;28.50;;;;;;5090573;28;20402;-78
2024/01/09 04:59:27;;;;;;;6.60;3.45;;;-2.80;28.20;;;;;;5089327;28;20529;-78
2024/01/09 05:01:53;;;;;;;5.80;3.40;;;-2.80;28.80;;;;;;5088985;28;20409;-79
2024/01/09 05:04:19;;;;;;;7.10;3.20;;;-2.80;28.60;;;;;;5071774;28;20429;-78
2024/01/09 05:06:44;;;;;;;7.23;3.33;;;-2.80;29.20;;;;;;5089690;28;20454;-78
2024/01/09 05:09:11;;;;;;;7.47;3.70;;;-2.80;29.50;;;;;;5089491;28;20405;-78
2024/01/09 05:11:37;;;;;;;6.20;3.20;;;-2.80;29.40;;;;;;5090050;28;20782;-78
2024/01/09 05:14:02;;;;;;;7.43;3.10;;;-2.80;29.20;;;;;;5089112;28;20406;-78
2024/01/09 05:16:28;;;;;;;6.17;3.37;;;-2.90;28.20;;;;;;5090202;28;20947;-78
2024/01/09 05:18:54;;;;;;;7.03;3.30;;;-2.90;28.20;;;;;;5090251;28;20399;-78
2024/01/09 05:21:20;;;;;;;6.25;3.42;;;-2.90;28.60;;;;;;5101322;28;20399;-78
2024/01/09 05:23:45;;;;;;;6.27;3.40;;;-2.90;28.20;;;;;;5106182;28;20464;-78
2024/01/09 05:26:11;;;;;;;7.20;3.73;;;-2.90;28.60;;;;;;5108032;28;20423;-79
2024/01/09 05:28:37;;;;;;;10.10;3.78;;;-2.90;28.90;;;;;;5105603;28;20404;-78
2024/01/09 05:31:03;;;;;;;7.90;3.38;;;-2.90;28.60;;;;;;5106956;28;20912;-78
2024/01/09 05:33:28;;;;;;;7.07;3.67;;;-2.90;28.00;;;;;;5107133;28;20398;-78
2024/01/09 05:35:54;;;;;;;5.65;3.38;;;-2.90;28.10;;;;;;5107936;28;20399;-78
2024/01/09 05:38:20;;;;;;;6.93;3.40;;;-2.90;27.50;;;;;;5094439;28;20411;-78
2024/01/09 05:40:46;;;;;;;6.50;3.47;;;-2.90;26.50;;;;;;5096357;28;20400;-78
2024/01/09 05:43:12;;;;;;;6.47;3.53;;;-3.00;25.30;;;;;;5106754;28;20493;-78
2024/01/09 05:45:38;;;;;;;6.37;3.20;;;-3.00;24.10;;;;;;5108529;28;20435;-78
2024/01/09 05:48:04;;;;;;;8.03;3.43;;;-3.00;24.80;;;;;;5106361;28;20411;-78
2024/01/09 05:50:29;;;;;;;7.05;3.85;;;-3.00;22.90;;;;;;5094994;28;20760;-78
2024/01/09 05:52:55;;;;;;;7.43;3.90;;;-3.00;23.40;;;;;;5088844;28;20406;-78
2024/01/09 05:55:21;;;;;;;8.20;3.63;;;-3.00;23.30;;;;;;5089171;28;20493;-78
2024/01/09 05:57:46;;;;;;;7.88;3.63;;;-3.00;21.90;;;;;;5087807;28;20437;-78
2024/01/09 06:00:12;;;;;;;6.40;3.40;;;-3.00;21.00;;;;;;5088792;28;20441;-78
2024/01/09 06:02:38;;;;;;;6.45;3.53;;;-3.00;21.40;;;;;;5087704;28;20900;-78
2024/01/09 06:05:04;;;;;;;6.45;3.80;;;-3.10;20.20;;;;;;5087676;28;20409;-78
2024/01/09 06:07:30;;;;;;;5.97;3.42;;;-3.00;18.50;;;;;;5088418;28;20436;-78
2024/01/09 06:09:55;;;;;;;6.33;3.60;;;-3.00;19.00;;;;;;5088546;28;20402;-78
2024/01/09 06:12:21;;;;;;;7.23;3.27;;;-3.10;19.80;;;;;;5088607;28;20413;-78
2024/01/09 06:14:46;;;;;;;6.68;3.75;;;-3.10;19.60;;;;;;5089807;28;20531;-79
2024/01/09 06:17:12;;;;;;;6.85;3.30;;;-3.10;19.00;;;;;;5088117;28;20478;-78
2024/01/09 06:19:38;;;;;;;6.63;3.33;;;-3.10;19.10;;;;;;5089916;28;20428;-77
2024/01/09 06:22:04;;;;;;;6.68;3.53;;;-3.10;19.20;;;;;;5088746;28;20876;-78
2024/01/09 06:24:29;;;;;;;5.37;3.40;;;-3.00;17.40;;;;;;5088869;28;20416;-78
2024/01/09 06:26:55;;;;;;;6.53;3.30;;;-3.00;16.10;;;;;;5086115;28;20850;-78
2024/01/09 06:29:22;;;;;;;6.95;3.47;;;-3.00;16.20;;;;;;5085303;28;20428;-78
2024/01/09 06:31:47;;;;;;;5.38;3.10;;;-3.10;15.10;;;;;;5076807;28;20487;-78
2024/01/09 06:34:13;;;;;;;6.20;3.40;;;-3.10;15.60;;;;;;5088190;28;20801;-78
2024/01/09 06:36:39;;;;;;;5.53;3.30;;;-3.10;15.00;;;;;;5093836;28;20404;-78
2024/01/09 06:39:04;;;;;;;5.70;3.30;;;-3.10;13.80;;;;;;5107043;28;20423;-78
2024/01/09 06:41:30;;;;;;;6.22;3.35;;;-3.10;13.20;;;;;;5101857;28;20430;-78
2024/01/09 06:43:55;;;;;;;6.27;3.53;;;-3.10;12.60;;;;;;5088154;28;20406;-78
2024/01/09 06:46:21;;;;;;;5.93;3.50;;;-3.10;11.40;;;;;;5105880;28;20424;-78
2024/01/09 06:48:47;;;;;;;8.55;3.60;;;-3.10;10.10;;;;;;5106155;28;20796;-78
2024/01/09 06:51:12;;;;;;;6.20;3.60;;;-3.10;9.20;;;;;;5086359;28;20402;-78
2024/01/09 06:53:38;;;;;;;7.60;3.73;;;-3.10;9.70;;;;;;5087907;28;20495;-78
2024/01/09 06:56:05;;;;;;;6.13;3.50;;;-3.10;10.30;;;;;;5089500;28;20495;-78
2024/01/09 06:58:31;;;;;;;8.70;4.20;;;-3.00;9.00;;;;;;5086372;28;20405;-78
2024/01/09 07:00:56;;;;;;;8.80;5.65;;;-3.10;8.20;;;;;;5086203;28;20410;-78
2024/01/09 07:03:22;;;;;;;12.73;7.95;;;-3.00;7.30;;;;;;5086557;28;20455;-79
2024/01/09 07:05:48;;;;;;;21.97;12.67;;;-3.00;6.10;;;;;;5087983;28;20812;-78
2024/01/09 07:08:13;;;;;;;12.00;7.90;;;-3.00;5.10;;;;;;5070186;28;20494;-78
2024/01/09 07:10:39;;;;;;;6.85;3.90;;;-3.00;1.70;;;;;;5087115;28;20868;-78
2024/01/09 07:13:04;;;;;;;5.80;3.70;;;-2.90;1.00;;;;;;5086450;28;20935;-79
2024/01/09 07:15:30;;;;;;;7.23;3.97;;;-2.90;1.00;;;;;;5087882;28;20398;-78
2024/01/09 07:17:56;;;;;;;8.57;5.05;;;-2.80;1.00;;;;;;5088076;28;20405;-78
2024/01/09 07:20:21;;;;;;;25.33;15.23;;;-2.80;1.00;;;;;;5087884;28;20907;-79
2024/01/09 07:22:48;;;;;;;35.73;21.67;;;-2.80;1.00;;;;;;5103562;28;20820;-78
2024/01/09 07:25:14;;;;;;;9.65;4.68;;;-2.70;1.00;;;;;;5091079;28;20396;-79
2024/01/09 07:27:39;;;;;;;9.05;4.97;;;-2.70;1.00;;;;;;5105239;28;20428;-78
2024/01/09 07:30:06;;;;;;;12.48;8.13;;;-2.70;1.00;;;;;;5100657;28;21644;-78
2024/01/09 07:32:31;;;;;;;10.65;6.72;;;-2.70;1.00;;;;;;5097530;28;20767;-78
2024/01/09 07:34:57;;;;;;;13.63;8.50;;;-2.70;1.00;;;;;;5100559;28;20498;-79
2024/01/09 07:37:23;;;;;;;13.38;7.60;;;-2.70;1.00;;;;;;5104581;28;20479;-79
2024/01/09 07:39:48;;;;;;;14.77;6.80;;;-2.80;1.00;;;;;;5101094;28;20672;-79
2024/01/09 07:42:15;;;;;;;12.40;7.60;;;-2.80;1.00;;;;;;5103076;28;20436;-78
2024/01/09 07:44:41;;;;;;;15.02;8.80;;;-2.80;1.00;;;;;;5098103;28;20402;-79
2024/01/09 07:47:11;;;;;;;14.75;9.40;;;-2.90;1.00;;;;;;5102286;28;21145;-79
2024/01/09 07:49:38;;;;;;;14.20;7.38;;;-2.90;1.00;;;;;;5093847;28;20402;-79
2024/01/09 07:52:04;;;;;;;12.40;6.23;;;-2.90;2.30;;;;;;5088780;28;20394;-79
2024/01/09 07:54:30;;;;;;;11.18;6.95;;;-2.90;2.20;;;;;;5087358;28;20838;-79
2024/01/09 07:56:56;;;;;;;10.63;6.47;;;-2.90;3.80;;;;;;5088916;28;20422;-79
2024/01/09 07:59:22;;;;;;;12.30;5.88;;;-2.90;4.30;;;;;;5088932;28;20463;-79
2024/01/09 08:01:56;;;;;;;8.85;5.60;;;-2.90;4.70;;;;;;5089161;28;20402;-79
2024/01/09 08:04:23;;;;;;;12.67;8.00;;;-2.90;5.80;;;;;;5089595;28;20771;-78
2024/01/09 08:06:52;;;;;;;12.88;7.03;;;-2.90;5.10;;;;;;5073023;28;20465;-78
2024/01/09 08:09:18;;;;;;;20.65;10.85;;;-2.90;5.60;;;;;;5092781;28;20414;-79
2024/01/09 08:11:47;;;;;;;9.10;5.47;;;-2.90;5.20;;;;;;5093177;28;20755;-79
2024/01/09 08:14:13;;;;;;;10.23;5.00;;;-2.90;6.20;;;;;;5080733;28;20524;-79
2024/01/09 08:16:40;;;;;;;13.27;8.48;;;-2.90;5.80;;;;;;5090416;28;20402;-79
2024/01/09 08:19:06;;;;;;;13.88;8.30;;;-2.90;5.20;;;;;;5092404;28;20802;-78
2024/01/09 08:21:32;;;;;;;11.20;5.95;;;-2.90;4.00;;;;;;5074600;28;20458;-79
2024/01/09 08:23:58;;;;;;;9.85;5.70;;;-2.90;3.60;;;;;;5092095;28;20398;-79
2024/01/09 08:26:23;;;;;;;12.07;7.38;;;-2.90;4.60;;;;;;5092049;28;20434;-79
2024/01/09 08:28:49;;;;;;;8.52;5.40;;;-2.90;3.80;;;;;;5090615;28;20509;-79
2024/01/09 08:31:15;;;;;;;11.40;7.00;;;-2.90;5.40;;;;;;5090773;28;20401;-79
2024/01/09 08:33:41;;;;;;;9.32;5.07;;;-2.80;5.60;;;;;;5090459;28;20947;-79
2024/01/09 08:36:07;;;;;;;8.10;4.70;;;-2.80;4.50;;;;;;5090810;28;20498;-79
2024/01/09 08:38:32;;;;;;;10.30;5.20;;;-2.80;4.90;;;;;;5090056;28;20749;-79
2024/01/09 08:40:58;;;;;;;8.93;4.83;;;-2.80;3.80;;;;;;5089775;28;20414;-79
2024/01/09 08:43:24;;;;;;;9.35;5.30;;;-2.80;3.60;;;;;;5090176;28;20410;-79
2024/01/09 08:45:50;;;;;;;8.65;4.97;;;-2.80;4.30;;;;;;5091087;28;20922;-79
2024/01/09 08:48:17;;;;;;;8.18;4.97;;;-2.80;3.00;;;;;;5082493;28;20411;-79
2024/01/09 08:50:43;;;;;;;8.30;4.70;;;-2.80;3.50;;;;;;5084747;28;20405;-79
2024/01/09 08:53:09;;;;;;;8.52;5.15;;;-2.70;2.10;;;;;;5089918;28;20853;-79
2024/01/09 08:55:34;;;;;;;8.25;4.78;;;-2.70;3.30;;;;;;5073695;28;20414;-79
2024/01/09 08:58:00;;;;;;;8.10;5.28;;;-2.70;2.30;;;;;;5088758;28;20442;-79
2024/01/09 09:00:26;;;;;;;8.52;4.90;;;-2.70;2.70;;;;;;5089945;28;20434;-78
2024/01/09 09:02:51;;;;;;;7.00;4.50;;;-2.70;1.00;;;;;;5090649;28;20414;-79
2024/01/09 09:05:17;;;;;;;10.13;5.03;;;-2.70;1.50;;;;;;5089663;28;20413;-78
2024/01/09 09:07:43;;;;;;;7.88;4.50;;;-2.60;1.10;;;;;;5088794;28;20975;-79
2024/01/09 09:10:09;;;;;;;10.73;5.10;;;-2.60;1.40;;;;;;5103781;28;20400;-79
2024/01/09 09:12:35;;;;;;;9.30;4.70;;;-2.60;2.50;;;;;;5108301;28;20440;-79
2024/01/09 09:15:02;;;;;;;8.87;4.80;;;-2.60;1.00;;;;;;5107484;28;20392;-79
2024/01/09 09:17:29;;;;;;;8.23;4.63;;;-2.50;1.00;;;;;;5108476;28;20428;-79
2024/01/09 09:19:54;;;;;;;7.63;4.70;;;-2.50;1.00;;;;;;5107101;28;20396;-79
2024/01/09 09:22:23;;;;;;;8.63;4.50;;;-2.50;1.00;;;;;;5108274;28;20763;-78
2024/01/09 09:24:49;;;;;;;8.05;4.70;;;-2.50;1.00;;;;;;5106516;28;20997;-79
2024/01/09 09:27:15;;;;;;;8.32;4.63;;;-2.40;1.00;;;;;;5108378;28;20519;-79
2024/01/09 09:29:41;;;;;;;8.60;4.72;;;-2.40;1.00;;;;;;5104119;28;20406;-79
2024/01/09 09:32:07;;;;;;;7.45;4.85;;;-2.40;1.00;;;;;;5099081;28;20931;-79
2024/01/09 09:34:33;;;;;;;8.55;4.63;;;-2.40;1.00;;;;;;5089454;28;20402;-78
2024/01/09 09:36:58;;;;;;;8.00;4.47;;;-2.40;1.00;;;;;;5106635;28;20766;-78
2024/01/09 09:39:24;;;;;;;8.32;4.60;;;-2.30;1.00;;;;;;5104632;28;20433;-79
2024/01/09 09:41:56;;;;;;;7.57;4.37;;;-2.30;1.00;;;;;;5107664;28;20483;-79
2024/01/09 09:44:24;;;;;;;9.23;4.80;;;-2.30;1.00;;;;;;5104695;28;20449;-79
2024/01/09 09:46:51;;;;;;;7.70;4.53;;;-2.30;1.00;;;;;;5099177;28;20508;-79
2024/01/09 09:49:22;;;;;;;8.90;4.53;;;-2.20;1.00;;;;;;5100915;28;20911;-78
2024/01/09 09:51:49;;;;;;;6.90;4.25;;;-2.20;1.00;;;;;;5089711;28;20484;-79
2024/01/09 09:54:15;;;;;;;6.25;4.20;;;-2.10;1.00;;;;;;5089636;28;20396;-79
2024/01/09 09:56:41;;;;;;;7.60;4.03;;;-2.10;1.00;;;;;;5071897;28;20502;-79
2024/01/09 09:59:10;;;;;;;8.57;4.20;;;-2.00;1.00;;;;;;5088432;28;21314;-79
2024/01/09 10:01:37;;;;;;;6.20;3.90;;;-2.00;1.00;;;;;;5090092;28;20410;-79
2024/01/09 10:04:14;;;;;;;7.70;3.88;;;-2.00;1.00;;;;;;5089205;28;20425;-79
2024/01/09 10:06:44;;;;;;;7.55;3.97;;;-1.90;1.00;;;;;;5089253;28;20530;-79
2024/01/09 10:09:13;;;;;;;7.35;4.20;;;-1.90;1.00;;;;;;5088726;28;20854;-79
2024/01/09 10:11:39;;;;;;;6.60;3.80;;;-1.80;1.00;;;;;;5088454;28;20450;-79
2024/01/09 10:14:08;;;;;;;6.30;3.65;;;-1.80;1.00;;;;;;5087073;28;20413;-79
2024/01/09 10:16:53;;;;;;;6.22;3.60;;;-1.80;1.00;;;;;;5088688;28;20433;-79
2024/01/09 10:19:23;;;;;;;6.93;3.50;;;-1.70;1.00;;;;;;5073769;28;21023;-79
2024/01/09 10:21:49;;;;;;;5.55;3.30;;;-1.70;1.00;;;;;;5085782;28;20523;-79
2024/01/09 10:24:16;;;;;;;6.15;3.17;;;-1.70;1.00;;;;;;5088349;28;20422;-80
2024/01/09 10:26:42;;;;;;;6.22;3.47;;;-1.60;1.00;;;;;;5087875;28;20429;-79
2024/01/09 10:29:11;;;;;;;6.13;3.20;;;-1.60;1.00;;;;;;5086420;28;20414;-79
2024/01/09 10:31:40;;;;;;;5.53;3.38;;;-1.60;1.00;;;;;;5088249;28;20922;-79
2024/01/09 10:34:06;;;;;;;6.18;3.28;;;-1.50;1.00;;;;;;5088881;28;20844;-79
2024/01/09 10:36:32;;;;;;;6.88;3.50;;;-1.50;1.00;;;;;;5087173;28;20430;-79
2024/01/09 10:39:04;;;;;;;6.68;3.38;;;-1.50;1.00;;;;;;5088651;28;20441;-79
2024/01/09 10:41:31;;;;;;;5.38;3.42;;;-1.40;1.00;;;;;;5088300;28;20947;-80
2024/01/09 10:43:56;;;;;;;5.15;3.35;;;-1.40;1.00;;;;;;5070252;28;20398;-79
2024/01/09 10:46:26;;;;;;;6.15;3.72;;;-1.30;1.00;;;;;;5088663;28;20856;-79
2024/01/09 10:48:53;;;;;;;6.22;3.70;;;-1.30;1.00;;;;;;5074825;28;20429;-79
2024/01/09 10:51:20;;;;;;;6.60;3.95;;;-1.30;1.00;;;;;;5088722;28;20430;-79
2024/01/09 10:53:48;;;;;;;7.93;4.30;;;-1.20;1.00;;;;;;5088793;28;20402;-79
2024/01/09 10:56:18;;;;;;;7.90;4.05;;;-0.60;1.00;;;;;;5086829;28;20409;-80
2024/01/09 10:58:47;;;;;;;6.88;3.90;;;-0.10;1.00;;;;;;5089038;28;20402;-79
2024/01/09 11:01:13;;;;;;;8.65;4.15;;;0.20;1.00;;;;;;5088549;28;20413;-79
2024/01/09 11:03:40;;;;;;;6.80;4.20;;;0.30;1.00;;;;;;5088909;28;20489;-79
2024/01/09 11:06:07;;;;;;;7.72;3.92;;;0.40;1.00;;;;;;5088602;28;20405;-80
2024/01/09 11:08:37;;;;;;;6.63;3.92;;;0.60;1.00;;;;;;5088644;28;20967;-79
2024/01/09 11:11:08;;;;;;;7.15;3.80;;;0.90;1.00;;;;;;5086631;28;20412;-79
2024/01/09 11:13:37;;;;;;;6.43;3.70;;;1.10;1.00;;;;;;5088332;28;20397;-79
2024/01/09 11:16:04;;;;;;;6.13;3.67;;;1.40;1.00;;;;;;5097052;28;20496;-79
2024/01/09 11:18:32;;;;;;;5.93;3.80;;;1.60;1.00;;;;;;5106816;28;20406;-80
2024/01/09 11:21:02;;;;;;;5.45;3.22;;;1.80;1.00;;;;;;5106880;28;20423;-80
2024/01/09 11:23:42;;;;;;;5.72;3.78;;;2.00;1.00;;;;;;5106759;28;20400;-80
2024/01/09 11:26:08;;;;;;;5.97;3.55;;;2.40;1.00;;;;;;5106849;28;20430;-80
2024/01/09 11:28:38;;;;;;;7.43;3.60;;;2.90;99.90;;;;;;5105970;28;20446;-80
2024/01/09 11:31:07;;;;;;;5.40;3.70;;;3.10;99.90;;;;;;5105238;28;20407;-80
2024/01/09 11:33:33;;;;;;;5.55;3.50;;;2.90;99.90;;;;;;5103942;28;20738;-80
2024/01/09 11:36:06;;;;;;;5.88;3.70;;;2.90;99.90;;;;;;5092410;28;20410;-80
2024/01/09 11:38:32;;;;;;;4.85;3.20;;;2.80;99.90;;;;;;5087300;28;20421;-80
2024/01/09 11:41:05;;;;;;;6.35;3.72;;;2.60;99.90;;;;;;5100043;28;20431;-79
2024/01/09 11:44:00;;;;;;;4.88;3.35;;;2.20;99.90;;;;;;5109138;28;20396;-80
2024/01/09 11:46:27;;;;;;;7.43;3.78;;;1.60;99.90;;;;;;5108760;28;20968;-79
2024/01/09 11:48:54;;;;;;;6.05;4.10;;;1.10;99.90;;;;;;5092628;28;20727;-79
2024/01/09 11:51:22;;;;;;;6.35;4.03;;;0.60;99.90;;;;;;5092090;28;20398;-79
2024/01/09 11:53:48;;;;;;;6.95;3.72;;;0.30;99.90;;;;;;5091775;28;20820;-79
2024/01/09 11:56:14;;;;;;;5.63;3.75;;;0.20;1.00;;;;;;5089957;28;20428;-79
2024/01/09 11:58:41;;;;;;;5.57;3.40;;;0.00;1.00;;;;;;5103288;28;20400;-79
2024/01/09 12:01:07;;;;;;;5.97;3.67;;;-0.10;1.00;;;;;;5089754;28;20453;-79
2024/01/09 12:03:33;;;;;;;7.43;4.03;;;-0.10;1.00;;;;;;5090648;28;20442;-79
2024/01/09 12:05:59;;;;;;;5.80;3.72;;;-0.10;1.00;;;;;;5089209;28;21229;-79
2024/01/09 12:08:25;;;;;;;7.10;3.70;;;0.00;1.00;;;;;;5090845;28;20402;-78
2024/01/09 12:10:51;;;;;;;6.87;4.37;;;0.10;1.00;;;;;;5091076;28;20752;-79
2024/01/09 12:13:17;;;;;;;6.22;3.53;;;0.10;1.00;;;;;;5102922;28;20397;-79
2024/01/09 12:15:42;;;;;;;6.43;3.85;;;0.10;1.00;;;;;;5094754;28;20830;-78
2024/01/09 12:18:08;;;;;;;5.75;3.40;;;0.10;1.00;;;;;;5108863;28;20432;-78
2024/01/09 12:20:35;;;;;;;5.90;3.20;;;0.10;1.00;;;;;;5107748;28;20439;-79
2024/01/09 12:23:02;;;;;;;5.70;3.30;;;0.30;1.00;;;;;;5108732;28;21155;-79
2024/01/09 12:25:28;;;;;;;6.43;3.50;;;0.40;1.00;;;;;;5107444;28;20480;-79
2024/01/09 12:27:54;;;;;;;5.22;3.40;;;0.50;1.00;;;;;;5107979;28;20424;-79
2024/01/09 12:30:21;;;;;;;4.95;2.97;;;0.50;1.00;;;;;;5095180;28;20439;-79
2024/01/09 12:32:47;;;;;;;4.63;2.80;;;0.70;1.00;;;;;;5108394;28;20905;-79
2024/01/09 12:35:13;;;;;;;5.43;2.63;;;0.70;1.00;;;;;;5107592;28;20404;-79
2024/01/09 12:37:38;;;;;;;4.72;2.80;;;0.80;1.00;;;;;;5107371;28;20808;-79
2024/01/09 12:40:09;;;;;;;5.57;2.50;;;0.80;1.00;;;;;;5107127;28;20407;-79
2024/01/09 12:42:36;;;;;;;4.25;2.55;;;0.80;1.00;;;;;;5106344;28;20475;-79
2024/01/09 12:45:02;;;;;;;5.32;2.78;;;0.90;1.00;;;;;;5107023;28;20403;-79
2024/01/09 12:47:28;;;;;;;5.70;2.38;;;1.00;1.00;;;;;;5106873;28;20436;-79